Barbers Point NAS, Hawaii
Current Conditions -  °F | °C
As of 9:30 PM on Friday 28 Nov 2014 (Local Time) from PHJR Reporting Station
Scattered Clouds Scattered Clouds  
Wind Chill: 72°   Ceiling: Unl
Heat Index: 72°   Visibility: 10mi
Dew Point: 63°   Wind: 6mph
Humidity: 73%   Direction: 70°ENE
Pressure: 30.06"   Gusts: NA
Location:  21.32°N, 158.08°W
Report Text: PHJR 290730Z 07005KT 10SM FEW002 SCT050 22/17 A3006 RMK AO2
Loading
Personal Weather Stations






























Interactive Weather Map New forecast layout! Learn more

10-Day Weather Forecast

Advertisements
Track Severe Weather on mobile